Terminal Aerodrome Forecast
Issued by NWS

Home | Current Version | Previous Version | Text Only | Print | Product List | Glossary On
Versions: 1 2 3 4 5 6 7 8 9 10 11 12 13 14 15
000
FTAK31 PAFA 060600 AAA
TAFAUN
TAF AMD
PAUN 060600Z 0606/0706 03008KT P6SM BKN110
     FM060900 06008KT P6SM SCT060 BKN120
     FM062000 32010KT P6SM BKN050 BKN100
     FM070400 02015KT P6SM SCT120=

USA.gov is the U.S. government's official web portal to all federal, state and local government web resources and services.